sensor_id;sensor_type;location;lat;lon;timestamp;temperature;humidity
18611;DHT22;9435;52.122;5.502;2023-09-08T00:02:24;18.20;99.90
18611;DHT22;9435;52.122;5.502;2023-09-08T00:04:52;18.20;99.90
18611;DHT22;9435;52.122;5.502;2023-09-08T00:07:19;18.10;99.90
18611;DHT22;9435;52.122;5.502;2023-09-08T00:09:46;18.10;99.90
18611;DHT22;9435;52.122;5.502;2023-09-08T00:12:14;18.00;99.90
18611;DHT22;9435;52.122;5.502;2023-09-08T00:14:42;18.00;99.90
18611;DHT22;9435;52.122;5.502;2023-09-08T00:17:09;17.90;99.90
18611;DHT22;9435;52.122;5.502;2023-09-08T00:19:36;17.90;99.90
18611;DHT22;9435;52.122;5.502;2023-09-08T00:22:04;17.90;99.90
18611;DHT22;9435;52.122;5.502;2023-09-08T00:24:33;17.90;99.90
18611;DHT22;9435;52.122;5.502;2023-09-08T00:27:00;17.90;99.90
18611;DHT22;9435;52.122;5.502;2023-09-08T00:29:27;17.90;99.90
18611;DHT22;9435;52.122;5.502;2023-09-08T00:31:55;17.90;99.90
18611;DHT22;9435;52.122;5.502;2023-09-08T00:34:22;17.80;99.90
18611;DHT22;9435;52.122;5.502;2023-09-08T00:36:49;17.80;99.90
18611;DHT22;9435;52.122;5.502;2023-09-08T00:39:16;17.80;99.90
18611;DHT22;9435;52.122;5.502;2023-09-08T00:41:44;17.80;99.90
18611;DHT22;9435;52.122;5.502;2023-09-08T00:44:11;17.80;99.90
18611;DHT22;9435;52.122;5.502;2023-09-08T00:46:38;17.80;99.90
18611;DHT22;9435;52.122;5.502;2023-09-08T00:49:06;17.80;99.90
18611;DHT22;9435;52.122;5.502;2023-09-08T00:51:34;17.80;99.90
18611;DHT22;9435;52.122;5.502;2023-09-08T00:54:04;17.80;99.90
18611;DHT22;9435;52.122;5.502;2023-09-08T00:56:31;17.70;99.90
18611;DHT22;9435;52.122;5.502;2023-09-08T00:58:59;17.80;99.90
18611;DHT22;9435;52.122;5.502;2023-09-08T01:01:28;17.70;99.90
18611;DHT22;9435;52.122;5.502;2023-09-08T01:03:55;17.70;99.90
18611;DHT22;9435;52.122;5.502;2023-09-08T01:06:24;17.70;99.90
18611;DHT22;9435;52.122;5.502;2023-09-08T01:08:52;17.60;99.90
18611;DHT22;9435;52.122;5.502;2023-09-08T01:11:20;17.60;99.90
18611;DHT22;9435;52.122;5.502;2023-09-08T01:13:47;17.60;99.90
18611;DHT22;9435;52.122;5.502;2023-09-08T01:16:14;17.50;99.90
18611;DHT22;9435;52.122;5.502;2023-09-08T01:18:41;17.50;99.90
18611;DHT22;9435;52.122;5.502;2023-09-08T01:21:32;17.50;99.90
18611;DHT22;9435;52.122;5.502;2023-09-08T01:24:20;17.40;99.90
18611;DHT22;9435;52.122;5.502;2023-09-08T01:26:49;17.40;99.90
18611;DHT22;9435;52.122;5.502;2023-09-08T01:29:17;17.40;99.90
18611;DHT22;9435;52.122;5.502;2023-09-08T01:31:45;17.30;99.90
18611;DHT22;9435;52.122;5.502;2023-09-08T01:34:12;17.30;99.90
18611;DHT22;9435;52.122;5.502;2023-09-08T01:36:40;17.40;99.90
18611;DHT22;9435;52.122;5.502;2023-09-08T01:39:07;17.30;99.90
18611;DHT22;9435;52.122;5.502;2023-09-08T01:41:34;17.30;99.90
18611;DHT22;9435;52.122;5.502;2023-09-08T01:44:02;17.30;99.90
18611;DHT22;9435;52.122;5.502;2023-09-08T01:46:35;17.30;99.90
18611;DHT22;9435;52.122;5.502;2023-09-08T01:49:02;17.20;99.90
18611;DHT22;9435;52.122;5.502;2023-09-08T01:51:29;17.20;99.90
18611;DHT22;9435;52.122;5.502;2023-09-08T01:53:56;17.20;99.90
18611;DHT22;9435;52.122;5.502;2023-09-08T01:56:23;17.20;99.90
18611;DHT22;9435;52.122;5.502;2023-09-08T01:58:51;17.10;99.90
18611;DHT22;9435;52.122;5.502;2023-09-08T02:01:20;17.20;99.90
18611;DHT22;9435;52.122;5.502;2023-09-08T02:03:47;17.10;99.90
18611;DHT22;9435;52.122;5.502;2023-09-08T02:06:14;17.10;99.90
18611;DHT22;9435;52.122;5.502;2023-09-08T02:08:41;17.00;99.90
18611;DHT22;9435;52.122;5.502;2023-09-08T02:11:08;17.10;99.90
18611;DHT22;9435;52.122;5.502;2023-09-08T02:13:35;17.10;99.90
18611;DHT22;9435;52.122;5.502;2023-09-08T02:16:02;17.10;99.90
18611;DHT22;9435;52.122;5.502;2023-09-08T02:18:31;17.00;99.90
18611;DHT22;9435;52.122;5.502;2023-09-08T02:20:58;17.00;99.90
18611;DHT22;9435;52.122;5.502;2023-09-08T02:23:25;16.90;99.90
18611;DHT22;9435;52.122;5.502;2023-09-08T02:25:52;16.90;99.90
18611;DHT22;9435;52.122;5.502;2023-09-08T02:28:19;16.80;99.90
18611;DHT22;9435;52.122;5.502;2023-09-08T02:30:46;16.80;99.90
18611;DHT22;9435;52.122;5.502;2023-09-08T02:33:13;16.80;99.90
18611;DHT22;9435;52.122;5.502;2023-09-08T02:35:41;16.70;99.90
18611;DHT22;9435;52.122;5.502;2023-09-08T02:38:08;16.80;99.90
18611;DHT22;9435;52.122;5.502;2023-09-08T02:40:35;16.80;99.90
18611;DHT22;9435;52.122;5.502;2023-09-08T02:43:02;16.70;99.90
18611;DHT22;9435;52.122;5.502;2023-09-08T02:45:29;16.70;99.90
18611;DHT22;9435;52.122;5.502;2023-09-08T02:47:56;16.60;99.90
18611;DHT22;9435;52.122;5.502;2023-09-08T02:50:23;16.50;99.90
18611;DHT22;9435;52.122;5.502;2023-09-08T02:52:51;16.50;99.90
18611;DHT22;9435;52.122;5.502;2023-09-08T02:55:18;16.50;99.90
18611;DHT22;9435;52.122;5.502;2023-09-08T02:57:45;16.50;99.90
18611;DHT22;9435;52.122;5.502;2023-09-08T03:00:13;16.50;99.90
18611;DHT22;9435;52.122;5.502;2023-09-08T03:02:40;16.50;99.90
18611;DHT22;9435;52.122;5.502;2023-09-08T03:05:08;16.50;99.90
18611;DHT22;9435;52.122;5.502;2023-09-08T03:07:35;16.50;99.90
18611;DHT22;9435;52.122;5.502;2023-09-08T03:10:05;16.50;99.90
18611;DHT22;9435;52.122;5.502;2023-09-08T03:12:32;16.50;99.90
18611;DHT22;9435;52.122;5.502;2023-09-08T03:15:01;16.40;99.90
18611;DHT22;9435;52.122;5.502;2023-09-08T03:17:28;16.40;99.90
18611;DHT22;9435;52.122;5.502;2023-09-08T03:19:55;16.30;99.90
18611;DHT22;9435;52.122;5.502;2023-09-08T03:22:22;16.30;99.90
18611;DHT22;9435;52.122;5.502;2023-09-08T03:24:50;16.30;99.90
18611;DHT22;9435;52.122;5.502;2023-09-08T03:27:19;16.20;99.90
18611;DHT22;9435;52.122;5.502;2023-09-08T03:29:46;16.20;99.90
18611;DHT22;9435;52.122;5.502;2023-09-08T03:32:13;16.20;99.90
18611;DHT22;9435;52.122;5.502;2023-09-08T03:34:40;16.20;99.90
18611;DHT22;9435;52.122;5.502;2023-09-08T03:37:07;16.20;99.90
18611;DHT22;9435;52.122;5.502;2023-09-08T03:39:34;16.30;99.90
18611;DHT22;9435;52.122;5.502;2023-09-08T03:42:01;16.20;99.90
18611;DHT22;9435;52.122;5.502;2023-09-08T03:44:30;16.20;99.90
18611;DHT22;9435;52.122;5.502;2023-09-08T03:46:57;16.20;99.90
18611;DHT22;9435;52.122;5.502;2023-09-08T03:49:24;16.20;99.90
18611;DHT22;9435;52.122;5.502;2023-09-08T03:51:51;16.20;99.90
18611;DHT22;9435;52.122;5.502;2023-09-08T03:54:18;16.20;99.90
18611;DHT22;9435;52.122;5.502;2023-09-08T03:56:45;16.20;99.90
18611;DHT22;9435;52.122;5.502;2023-09-08T03:59:12;16.10;99.90
18611;DHT22;9435;52.122;5.502;2023-09-08T04:01:40;16.10;99.90
18611;DHT22;9435;52.122;5.502;2023-09-08T04:04:07;16.00;99.90
18611;DHT22;9435;52.122;5.502;2023-09-08T04:06:34;16.00;99.90
18611;DHT22;9435;52.122;5.502;2023-09-08T04:09:01;16.00;99.90
18611;DHT22;9435;52.122;5.502;2023-09-08T04:11:28;16.00;99.90
18611;DHT22;9435;52.122;5.502;2023-09-08T04:13:55;16.00;99.90
18611;DHT22;9435;52.122;5.502;2023-09-08T04:16:23;15.90;99.90
18611;DHT22;9435;52.122;5.502;2023-09-08T04:18:51;16.00;99.90
18611;DHT22;9435;52.122;5.502;2023-09-08T04:21:18;16.00;99.90
18611;DHT22;9435;52.122;5.502;2023-09-08T04:23:45;16.00;99.90
18611;DHT22;9435;52.122;5.502;2023-09-08T04:26:12;16.00;99.90
18611;DHT22;9435;52.122;5.502;2023-09-08T04:28:40;16.00;99.90
18611;DHT22;9435;52.122;5.502;2023-09-08T04:31:07;15.90;99.90
18611;DHT22;9435;52.122;5.502;2023-09-08T04:33:34;15.80;99.90
18611;DHT22;9435;52.122;5.502;2023-09-08T04:36:02;15.80;99.90
18611;DHT22;9435;52.122;5.502;2023-09-08T04:38:29;15.80;99.90
18611;DHT22;9435;52.122;5.502;2023-09-08T04:40:56;15.80;99.90
18611;DHT22;9435;52.122;5.502;2023-09-08T04:43:24;15.80;99.90
18611;DHT22;9435;52.122;5.502;2023-09-08T04:45:51;15.70;99.90
18611;DHT22;9435;52.122;5.502;2023-09-08T04:48:18;15.70;99.90
18611;DHT22;9435;52.122;5.502;2023-09-08T04:50:45;15.70;99.90
18611;DHT22;9435;52.122;5.502;2023-09-08T04:53:14;15.70;99.90
18611;DHT22;9435;52.122;5.502;2023-09-08T04:55:41;15.60;99.90
18611;DHT22;9435;52.122;5.502;2023-09-08T04:58:08;15.60;99.90
18611;DHT22;9435;52.122;5.502;2023-09-08T05:00:37;15.50;99.90
18611;DHT22;9435;52.122;5.502;2023-09-08T05:03:05;15.60;99.90
18611;DHT22;9435;52.122;5.502;2023-09-08T05:05:32;15.50;99.90
18611;DHT22;9435;52.122;5.502;2023-09-08T05:07:59;15.50;99.90
18611;DHT22;9435;52.122;5.502;2023-09-08T05:10:27;15.50;99.90
18611;DHT22;9435;52.122;5.502;2023-09-08T05:12:55;15.50;99.90
18611;DHT22;9435;52.122;5.502;2023-09-08T05:15:22;15.50;99.90
18611;DHT22;9435;52.122;5.502;2023-09-08T05:17:50;15.60;99.90
18611;DHT22;9435;52.122;5.502;2023-09-08T05:20:18;15.60;99.90
18611;DHT22;9435;52.122;5.502;2023-09-08T05:22:45;15.60;99.90
18611;DHT22;9435;52.122;5.502;2023-09-08T05:25:12;15.60;99.90
18611;DHT22;9435;52.122;5.502;2023-09-08T05:27:40;15.60;99.90
18611;DHT22;9435;52.122;5.502;2023-09-08T05:30:08;15.60;99.90
18611;DHT22;9435;52.122;5.502;2023-09-08T05:32:35;15.60;99.90
18611;DHT22;9435;52.122;5.502;2023-09-08T05:35:03;15.60;99.90
18611;DHT22;9435;52.122;5.502;2023-09-08T05:37:30;15.60;99.90
18611;DHT22;9435;52.122;5.502;2023-09-08T05:39:57;15.60;99.90
18611;DHT22;9435;52.122;5.502;2023-09-08T05:42:24;15.60;99.90
18611;DHT22;9435;52.122;5.502;2023-09-08T05:44:52;15.60;99.90
18611;DHT22;9435;52.122;5.502;2023-09-08T05:47:20;15.60;99.90
18611;DHT22;9435;52.122;5.502;2023-09-08T05:49:47;15.70;99.90
18611;DHT22;9435;52.122;5.502;2023-09-08T05:52:14;15.70;99.90
18611;DHT22;9435;52.122;5.502;2023-09-08T05:54:41;15.70;99.90
18611;DHT22;9435;52.122;5.502;2023-09-08T05:57:08;15.80;99.90
18611;DHT22;9435;52.122;5.502;2023-09-08T05:59:35;15.80;99.90
18611;DHT22;9435;52.122;5.502;2023-09-08T06:02:03;15.80;99.90
18611;DHT22;9435;52.122;5.502;2023-09-08T06:04:31;15.80;99.90
18611;DHT22;9435;52.122;5.502;2023-09-08T06:06:58;15.90;99.90
18611;DHT22;9435;52.122;5.502;2023-09-08T06:09:25;15.90;99.90
18611;DHT22;9435;52.122;5.502;2023-09-08T06:11:52;16.00;99.90
18611;DHT22;9435;52.122;5.502;2023-09-08T06:14:19;16.00;99.90
18611;DHT22;9435;52.122;5.502;2023-09-08T06:16:46;16.10;99.90
18611;DHT22;9435;52.122;5.502;2023-09-08T06:19:15;16.20;99.90
18611;DHT22;9435;52.122;5.502;2023-09-08T06:21:42;16.30;99.90
18611;DHT22;9435;52.122;5.502;2023-09-08T06:24:09;16.40;99.90
18611;DHT22;9435;52.122;5.502;2023-09-08T06:26:37;16.50;99.90
18611;DHT22;9435;52.122;5.502;2023-09-08T06:29:06;16.70;99.90
18611;DHT22;9435;52.122;5.502;2023-09-08T06:31:36;17.00;99.90
18611;DHT22;9435;52.122;5.502;2023-09-08T06:34:05;17.20;99.90
18611;DHT22;9435;52.122;5.502;2023-09-08T06:36:38;17.50;99.90
18611;DHT22;9435;52.122;5.502;2023-09-08T06:39:05;17.80;99.90
18611;DHT22;9435;52.122;5.502;2023-09-08T06:41:38;18.00;99.90
18611;DHT22;9435;52.122;5.502;2023-09-08T06:44:05;18.30;99.90
18611;DHT22;9435;52.122;5.502;2023-09-08T06:46:32;18.60;99.90
18611;DHT22;9435;52.122;5.502;2023-09-08T06:48:59;18.80;99.90
18611;DHT22;9435;52.122;5.502;2023-09-08T06:51:27;19.00;99.90
18611;DHT22;9435;52.122;5.502;2023-09-08T06:53:56;19.30;99.90
18611;DHT22;9435;52.122;5.502;2023-09-08T06:56:23;19.50;99.90
18611;DHT22;9435;52.122;5.502;2023-09-08T06:58:50;19.70;99.90
18611;DHT22;9435;52.122;5.502;2023-09-08T07:01:17;19.90;99.90
18611;DHT22;9435;52.122;5.502;2023-09-08T07:03:44;20.10;99.90
18611;DHT22;9435;52.122;5.502;2023-09-08T07:06:11;20.30;99.90
18611;DHT22;9435;52.122;5.502;2023-09-08T07:08:38;20.50;99.90
18611;DHT22;9435;52.122;5.502;2023-09-08T07:11:07;20.60;99.90
18611;DHT22;9435;52.122;5.502;2023-09-08T07:13:34;20.80;99.90
18611;DHT22;9435;52.122;5.502;2023-09-08T07:16:01;21.00;99.90
18611;DHT22;9435;52.122;5.502;2023-09-08T07:18:28;21.20;99.90
18611;DHT22;9435;52.122;5.502;2023-09-08T07:20:58;21.20;99.90
18611;DHT22;9435;52.122;5.502;2023-09-08T07:23:25;21.40;99.90
18611;DHT22;9435;52.122;5.502;2023-09-08T07:25:52;21.50;99.90
18611;DHT22;9435;52.122;5.502;2023-09-08T07:28:20;21.70;99.90
18611;DHT22;9435;52.122;5.502;2023-09-08T07:30:47;21.80;99.90
18611;DHT22;9435;52.122;5.502;2023-09-08T07:33:14;22.00;99.90
18611;DHT22;9435;52.122;5.502;2023-09-08T07:35:42;22.10;99.90
18611;DHT22;9435;52.122;5.502;2023-09-08T07:38:10;22.30;99.90
18611;DHT22;9435;52.122;5.502;2023-09-08T07:40:37;22.40;99.90
18611;DHT22;9435;52.122;5.502;2023-09-08T07:43:04;22.50;99.90
18611;DHT22;9435;52.122;5.502;2023-09-08T07:45:32;22.60;99.90
18611;DHT22;9435;52.122;5.502;2023-09-08T07:48:00;22.70;99.90
18611;DHT22;9435;52.122;5.502;2023-09-08T07:50:28;22.80;99.90
18611;DHT22;9435;52.122;5.502;2023-09-08T07:52:57;22.90;99.90
18611;DHT22;9435;52.122;5.502;2023-09-08T07:55:24;23.10;99.90
18611;DHT22;9435;52.122;5.502;2023-09-08T07:57:53;23.30;99.90
18611;DHT22;9435;52.122;5.502;2023-09-08T08:00:20;23.30;99.90
18611;DHT22;9435;52.122;5.502;2023-09-08T08:02:50;23.50;99.90
18611;DHT22;9435;52.122;5.502;2023-09-08T08:05:18;23.60;99.90
18611;DHT22;9435;52.122;5.502;2023-09-08T08:07:45;23.60;99.90
18611;DHT22;9435;52.122;5.502;2023-09-08T08:10:13;23.70;99.90
18611;DHT22;9435;52.122;5.502;2023-09-08T08:12:41;23.80;99.90
18611;DHT22;9435;52.122;5.502;2023-09-08T08:15:09;23.90;99.90
18611;DHT22;9435;52.122;5.502;2023-09-08T08:17:37;24.00;99.90
18611;DHT22;9435;52.122;5.502;2023-09-08T08:20:07;24.10;99.90
18611;DHT22;9435;52.122;5.502;2023-09-08T08:22:35;24.30;99.90
18611;DHT22;9435;52.122;5.502;2023-09-08T08:25:03;24.50;99.90
18611;DHT22;9435;52.122;5.502;2023-09-08T08:27:30;24.50;99.90
18611;DHT22;9435;52.122;5.502;2023-09-08T08:29:58;24.50;99.90
18611;DHT22;9435;52.122;5.502;2023-09-08T08:32:26;24.70;99.90
18611;DHT22;9435;52.122;5.502;2023-09-08T08:34:53;24.90;99.90
18611;DHT22;9435;52.122;5.502;2023-09-08T08:37:22;24.90;99.90
18611;DHT22;9435;52.122;5.502;2023-09-08T08:39:49;25.00;99.90
18611;DHT22;9435;52.122;5.502;2023-09-08T08:42:16;24.90;99.90
18611;DHT22;9435;52.122;5.502;2023-09-08T08:44:43;25.10;99.90
18611;DHT22;9435;52.122;5.502;2023-09-08T08:47:12;25.30;99.90
18611;DHT22;9435;52.122;5.502;2023-09-08T08:49:43;25.40;99.90
18611;DHT22;9435;52.122;5.502;2023-09-08T08:52:12;25.40;99.90
18611;DHT22;9435;52.122;5.502;2023-09-08T08:54:41;25.50;99.90
18611;DHT22;9435;52.122;5.502;2023-09-08T08:57:11;25.40;99.90
18611;DHT22;9435;52.122;5.502;2023-09-08T08:59:39;25.60;99.90
18611;DHT22;9435;52.122;5.502;2023-09-08T09:02:09;25.80;99.90
18611;DHT22;9435;52.122;5.502;2023-09-08T09:04:38;25.90;99.90
18611;DHT22;9435;52.122;5.502;2023-09-08T09:07:06;26.00;99.90
18611;DHT22;9435;52.122;5.502;2023-09-08T09:09:34;26.20;99.90
18611;DHT22;9435;52.122;5.502;2023-09-08T09:12:03;26.30;99.90
18611;DHT22;9435;52.122;5.502;2023-09-08T09:14:32;26.40;99.90
18611;DHT22;9435;52.122;5.502;2023-09-08T09:17:00;26.40;99.90
18611;DHT22;9435;52.122;5.502;2023-09-08T09:19:30;26.60;99.90
18611;DHT22;9435;52.122;5.502;2023-09-08T09:21:58;26.80;99.90
18611;DHT22;9435;52.122;5.502;2023-09-08T09:24:30;26.90;99.90
18611;DHT22;9435;52.122;5.502;2023-09-08T09:26:58;27.00;99.90
18611;DHT22;9435;52.122;5.502;2023-09-08T09:29:27;27.00;99.90
18611;DHT22;9435;52.122;5.502;2023-09-08T09:31:56;27.10;99.90
18611;DHT22;9435;52.122;5.502;2023-09-08T09:34:23;27.20;99.90
18611;DHT22;9435;52.122;5.502;2023-09-08T09:36:51;27.00;99.90
18611;DHT22;9435;52.122;5.502;2023-09-08T09:39:19;27.10;99.90
18611;DHT22;9435;52.122;5.502;2023-09-08T09:41:46;27.40;99.90
18611;DHT22;9435;52.122;5.502;2023-09-08T09:44:14;27.40;99.90
18611;DHT22;9435;52.122;5.502;2023-09-08T09:46:45;27.60;99.90
18611;DHT22;9435;52.122;5.502;2023-09-08T09:49:12;27.70;99.90
18611;DHT22;9435;52.122;5.502;2023-09-08T09:51:40;27.70;99.90
18611;DHT22;9435;52.122;5.502;2023-09-08T09:54:08;27.80;99.90
18611;DHT22;9435;52.122;5.502;2023-09-08T09:56:37;27.90;99.90
18611;DHT22;9435;52.122;5.502;2023-09-08T09:59:07;27.90;99.90
18611;DHT22;9435;52.122;5.502;2023-09-08T10:01:35;28.00;99.90
18611;DHT22;9435;52.122;5.502;2023-09-08T10:04:04;28.10;99.90
18611;DHT22;9435;52.122;5.502;2023-09-08T10:06:32;28.30;99.90
18611;DHT22;9435;52.122;5.502;2023-09-08T10:09:00;28.30;99.90
18611;DHT22;9435;52.122;5.502;2023-09-08T10:11:35;28.30;99.90
18611;DHT22;9435;52.122;5.502;2023-09-08T10:14:04;28.40;99.90
18611;DHT22;9435;52.122;5.502;2023-09-08T10:16:38;28.50;99.90
18611;DHT22;9435;52.122;5.502;2023-09-08T10:19:08;28.60;99.90
18611;DHT22;9435;52.122;5.502;2023-09-08T10:21:40;28.60;99.90
18611;DHT22;9435;52.122;5.502;2023-09-08T10:24:14;28.70;99.90
18611;DHT22;9435;52.122;5.502;2023-09-08T10:26:44;28.80;99.90
18611;DHT22;9435;52.122;5.502;2023-09-08T10:29:13;28.70;99.90
18611;DHT22;9435;52.122;5.502;2023-09-08T10:31:41;28.80;99.90
18611;DHT22;9435;52.122;5.502;2023-09-08T10:34:10;29.00;99.90
18611;DHT22;9435;52.122;5.502;2023-09-08T10:36:37;29.00;99.90
18611;DHT22;9435;52.122;5.502;2023-09-08T10:39:27;28.80;99.90
18611;DHT22;9435;52.122;5.502;2023-09-08T10:42:22;28.80;99.90
18611;DHT22;9435;52.122;5.502;2023-09-08T10:44:59;28.70;99.90
18611;DHT22;9435;52.122;5.502;2023-09-08T10:47:32;28.70;99.90
18611;DHT22;9435;52.122;5.502;2023-09-08T10:50:03;28.80;99.90
18611;DHT22;9435;52.122;5.502;2023-09-08T10:52:31;28.80;99.90
18611;DHT22;9435;52.122;5.502;2023-09-08T10:55:00;28.90;99.90
18611;DHT22;9435;52.122;5.502;2023-09-08T10:57:28;29.10;99.90
18611;DHT22;9435;52.122;5.502;2023-09-08T11:00:00;29.10;99.90
18611;DHT22;9435;52.122;5.502;2023-09-08T11:02:34;29.20;99.90
18611;DHT22;9435;52.122;5.502;2023-09-08T11:05:04;29.20;99.90
18611;DHT22;9435;52.122;5.502;2023-09-08T11:07:33;29.40;99.90
18611;DHT22;9435;52.122;5.502;2023-09-08T11:10:00;29.50;99.90
18611;DHT22;9435;52.122;5.502;2023-09-08T11:12:28;29.60;99.90
18611;DHT22;9435;52.122;5.502;2023-09-08T11:14:55;29.70;99.90
18611;DHT22;9435;52.122;5.502;2023-09-08T11:17:25;29.80;99.90
18611;DHT22;9435;52.122;5.502;2023-09-08T11:19:54;29.90;99.90
18611;DHT22;9435;52.122;5.502;2023-09-08T11:22:24;30.00;99.90
18611;DHT22;9435;52.122;5.502;2023-09-08T11:24:51;30.00;99.90
18611;DHT22;9435;52.122;5.502;2023-09-08T11:27:19;30.00;99.90
18611;DHT22;9435;52.122;5.502;2023-09-08T11:29:47;30.10;99.90
18611;DHT22;9435;52.122;5.502;2023-09-08T11:32:14;30.20;99.90
18611;DHT22;9435;52.122;5.502;2023-09-08T11:34:41;30.20;99.90
18611;DHT22;9435;52.122;5.502;2023-09-08T11:37:09;30.30;99.90
18611;DHT22;9435;52.122;5.502;2023-09-08T11:39:40;30.30;99.90
18611;DHT22;9435;52.122;5.502;2023-09-08T11:42:07;30.40;99.90
18611;DHT22;9435;52.122;5.502;2023-09-08T11:44:35;30.40;99.90
18611;DHT22;9435;52.122;5.502;2023-09-08T11:47:03;30.50;99.90
18611;DHT22;9435;52.122;5.502;2023-09-08T11:49:36;30.50;99.90
18611;DHT22;9435;52.122;5.502;2023-09-08T11:52:04;30.50;99.90
18611;DHT22;9435;52.122;5.502;2023-09-08T11:54:32;30.60;99.90
18611;DHT22;9435;52.122;5.502;2023-09-08T11:57:03;30.60;99.90
18611;DHT22;9435;52.122;5.502;2023-09-08T11:59:32;30.70;99.90
18611;DHT22;9435;52.122;5.502;2023-09-08T12:01:59;30.60;99.90
18611;DHT22;9435;52.122;5.502;2023-09-08T12:04:27;30.70;99.90
18611;DHT22;9435;52.122;5.502;2023-09-08T12:06:54;30.80;99.90
18611;DHT22;9435;52.122;5.502;2023-09-08T12:09:22;30.70;99.90
18611;DHT22;9435;52.122;5.502;2023-09-08T12:11:49;30.90;99.90
18611;DHT22;9435;52.122;5.502;2023-09-08T12:14:18;31.00;99.90
18611;DHT22;9435;52.122;5.502;2023-09-08T12:16:45;31.10;99.90
18611;DHT22;9435;52.122;5.502;2023-09-08T12:19:30;30.90;99.90
18611;DHT22;9435;52.122;5.502;2023-09-08T12:22:00;30.90;99.90
18611;DHT22;9435;52.122;5.502;2023-09-08T12:24:48;31.10;99.90
18611;DHT22;9435;52.122;5.502;2023-09-08T12:27:16;31.10;99.90
18611;DHT22;9435;52.122;5.502;2023-09-08T12:29:53;31.10;99.90
18611;DHT22;9435;52.122;5.502;2023-09-08T12:32:20;31.00;99.90
18611;DHT22;9435;52.122;5.502;2023-09-08T12:34:48;31.20;99.90
18611;DHT22;9435;52.122;5.502;2023-09-08T12:37:19;31.30;99.90
18611;DHT22;9435;52.122;5.502;2023-09-08T12:39:47;31.20;99.90
18611;DHT22;9435;52.122;5.502;2023-09-08T12:42:14;31.30;99.90
18611;DHT22;9435;52.122;5.502;2023-09-08T12:44:42;31.20;99.90
18611;DHT22;9435;52.122;5.502;2023-09-08T12:47:11;31.20;99.90
18611;DHT22;9435;52.122;5.502;2023-09-08T12:49:39;31.30;99.90
18611;DHT22;9435;52.122;5.502;2023-09-08T12:52:07;31.20;99.90
18611;DHT22;9435;52.122;5.502;2023-09-08T12:54:35;31.20;99.90
18611;DHT22;9435;52.122;5.502;2023-09-08T12:57:02;31.30;99.90
18611;DHT22;9435;52.122;5.502;2023-09-08T12:59:29;31.20;99.90
18611;DHT22;9435;52.122;5.502;2023-09-08T13:01:57;31.20;99.90
18611;DHT22;9435;52.122;5.502;2023-09-08T13:04:25;31.20;99.90
18611;DHT22;9435;52.122;5.502;2023-09-08T13:06:52;31.10;99.90
18611;DHT22;9435;52.122;5.502;2023-09-08T13:09:19;31.10;99.90
18611;DHT22;9435;52.122;5.502;2023-09-08T13:11:47;31.00;99.90
18611;DHT22;9435;52.122;5.502;2023-09-08T13:14:14;31.00;99.90
18611;DHT22;9435;52.122;5.502;2023-09-08T13:16:41;30.90;99.90
18611;DHT22;9435;52.122;5.502;2023-09-08T13:19:08;30.80;99.90
18611;DHT22;9435;52.122;5.502;2023-09-08T13:21:37;30.70;99.90
18611;DHT22;9435;52.122;5.502;2023-09-08T13:24:06;30.60;99.90
18611;DHT22;9435;52.122;5.502;2023-09-08T13:26:34;30.60;99.90
18611;DHT22;9435;52.122;5.502;2023-09-08T13:29:01;30.50;99.90
18611;DHT22;9435;52.122;5.502;2023-09-08T13:31:29;30.50;99.90
18611;DHT22;9435;52.122;5.502;2023-09-08T13:33:56;30.50;99.90
18611;DHT22;9435;52.122;5.502;2023-09-08T13:36:22;30.50;99.90
18611;DHT22;9435;52.122;5.502;2023-09-08T13:38:51;30.50;99.90
18611;DHT22;9435;52.122;5.502;2023-09-08T13:41:18;30.50;99.90
18611;DHT22;9435;52.122;5.502;2023-09-08T13:43:45;30.40;99.90
18611;DHT22;9435;52.122;5.502;2023-09-08T13:46:12;30.40;99.90
18611;DHT22;9435;52.122;5.502;2023-09-08T13:48:39;30.40;99.90
18611;DHT22;9435;52.122;5.502;2023-09-08T13:51:06;30.40;99.90
18611;DHT22;9435;52.122;5.502;2023-09-08T13:53:33;30.30;99.90
18611;DHT22;9435;52.122;5.502;2023-09-08T13:56:02;30.10;99.90
18611;DHT22;9435;52.122;5.502;2023-09-08T13:58:31;30.10;99.90
18611;DHT22;9435;52.122;5.502;2023-09-08T14:00:58;30.00;99.90
18611;DHT22;9435;52.122;5.502;2023-09-08T14:03:25;30.00;99.90
18611;DHT22;9435;52.122;5.502;2023-09-08T14:05:52;29.90;99.90
18611;DHT22;9435;52.122;5.502;2023-09-08T14:08:19;29.90;99.90
18611;DHT22;9435;52.122;5.502;2023-09-08T14:10:46;29.90;99.90
18611;DHT22;9435;52.122;5.502;2023-09-08T14:13:14;29.90;99.90
18611;DHT22;9435;52.122;5.502;2023-09-08T14:15:41;29.90;99.90
18611;DHT22;9435;52.122;5.502;2023-09-08T14:18:08;29.90;99.90
18611;DHT22;9435;52.122;5.502;2023-09-08T14:20:35;29.80;99.90
18611;DHT22;9435;52.122;5.502;2023-09-08T14:23:02;29.80;99.90
18611;DHT22;9435;52.122;5.502;2023-09-08T14:25:29;29.70;99.90
18611;DHT22;9435;52.122;5.502;2023-09-08T14:27:57;29.70;99.90
18611;DHT22;9435;52.122;5.502;2023-09-08T14:30:25;29.70;99.90
18611;DHT22;9435;52.122;5.502;2023-09-08T14:32:52;29.80;99.90
18611;DHT22;9435;52.122;5.502;2023-09-08T14:35:19;29.70;99.90
18611;DHT22;9435;52.122;5.502;2023-09-08T14:37:46;29.70;99.90
18611;DHT22;9435;52.122;5.502;2023-09-08T14:40:14;29.70;99.90
18611;DHT22;9435;52.122;5.502;2023-09-08T14:42:42;29.80;99.90
18611;DHT22;9435;52.122;5.502;2023-09-08T14:45:10;29.70;99.90
18611;DHT22;9435;52.122;5.502;2023-09-08T14:47:39;29.70;99.90
18611;DHT22;9435;52.122;5.502;2023-09-08T14:50:07;29.70;99.90
18611;DHT22;9435;52.122;5.502;2023-09-08T14:52:35;29.70;99.90
18611;DHT22;9435;52.122;5.502;2023-09-08T14:55:02;29.60;99.90
18611;DHT22;9435;52.122;5.502;2023-09-08T14:57:29;29.60;99.90
18611;DHT22;9435;52.122;5.502;2023-09-08T14:59:56;29.60;99.90
18611;DHT22;9435;52.122;5.502;2023-09-08T15:02:23;29.60;99.90
18611;DHT22;9435;52.122;5.502;2023-09-08T15:04:52;29.60;99.90
18611;DHT22;9435;52.122;5.502;2023-09-08T15:07:19;29.50;99.90
18611;DHT22;9435;52.122;5.502;2023-09-08T15:09:46;29.50;99.90
18611;DHT22;9435;52.122;5.502;2023-09-08T15:12:13;29.60;99.90
18611;DHT22;9435;52.122;5.502;2023-09-08T15:14:40;29.50;99.90
18611;DHT22;9435;52.122;5.502;2023-09-08T15:17:07;29.50;99.90
18611;DHT22;9435;52.122;5.502;2023-09-08T15:19:34;29.50;99.90
18611;DHT22;9435;52.122;5.502;2023-09-08T15:22:03;29.50;99.90
18611;DHT22;9435;52.122;5.502;2023-09-08T15:24:30;29.50;99.90
18611;DHT22;9435;52.122;5.502;2023-09-08T15:26:58;29.40;99.90
18611;DHT22;9435;52.122;5.502;2023-09-08T15:29:26;29.40;99.90
18611;DHT22;9435;52.122;5.502;2023-09-08T15:31:53;29.40;99.90
18611;DHT22;9435;52.122;5.502;2023-09-08T15:34:20;29.40;99.90
18611;DHT22;9435;52.122;5.502;2023-09-08T15:36:47;29.40;99.90
18611;DHT22;9435;52.122;5.502;2023-09-08T15:39:16;29.40;99.90
18611;DHT22;9435;52.122;5.502;2023-09-08T15:41:43;29.40;99.90
18611;DHT22;9435;52.122;5.502;2023-09-08T15:44:10;29.30;99.90
18611;DHT22;9435;52.122;5.502;2023-09-08T15:46:37;29.20;99.90
18611;DHT22;9435;52.122;5.502;2023-09-08T15:49:04;29.20;99.90
18611;DHT22;9435;52.122;5.502;2023-09-08T15:51:31;29.10;99.90